createdAt,value
2019-03-01T00:01:17.060Z,10.17
2019-03-01T00:04:03.493Z,10.09
2019-03-01T00:07:38.411Z,10.09
2019-03-01T00:11:14.324Z,10.03
2019-03-01T00:14:37.417Z,10.00
2019-03-01T00:18:08.704Z,9.98
2019-03-01T00:21:14.050Z,9.99
2019-03-01T00:24:20.804Z,10.04
2019-03-01T00:27:10.385Z,10.00
2019-03-01T00:30:32.326Z,9.98
2019-03-01T00:34:05.864Z,10.01
2019-03-01T00:37:02.127Z,9.93
2019-03-01T00:40:06.851Z,9.94
2019-03-01T00:43:27.702Z,9.87
2019-03-01T00:45:59.543Z,9.85
2019-03-01T00:48:31.371Z,9.79
2019-03-01T00:51:03.163Z,9.76
2019-03-01T00:53:35.008Z,9.70
2019-03-01T00:56:06.824Z,9.80
2019-03-01T00:58:38.632Z,9.75
2019-03-01T01:01:10.459Z,9.86
2019-03-01T01:03:42.291Z,9.75
2019-03-01T01:06:15.058Z,9.79
2019-03-01T01:08:46.889Z,9.86
2019-03-01T01:11:18.741Z,9.79
2019-03-01T01:13:50.614Z,9.90
2019-03-01T01:16:22.468Z,9.84
2019-03-01T01:18:54.286Z,9.89
2019-03-01T01:21:26.114Z,9.77
2019-03-01T01:23:57.940Z,9.83
2019-03-01T01:26:29.779Z,9.72
2019-03-01T01:29:01.653Z,9.75
2019-03-01T01:31:33.478Z,9.69
2019-03-01T01:34:05.300Z,9.62
2019-03-01T01:36:37.151Z,9.62
2019-03-01T01:39:10.735Z,9.54
2019-03-01T01:41:42.579Z,9.62
2019-03-01T01:44:14.406Z,9.62
2019-03-01T01:46:46.244Z,9.52
2019-03-01T01:49:19.050Z,9.45
2019-03-01T01:51:50.991Z,9.59
2019-03-01T01:54:22.899Z,9.56
2019-03-01T01:56:54.709Z,9.56
2019-03-01T01:59:26.514Z,9.53
2019-03-01T02:01:58.337Z,9.55
2019-03-01T02:04:30.192Z,9.51
2019-03-01T02:07:02.008Z,9.51
2019-03-01T02:09:34.016Z,9.47
2019-03-01T02:12:05.862Z,9.53
2019-03-01T02:14:37.710Z,9.46
2019-03-01T02:17:09.595Z,9.44
2019-03-01T02:19:41.414Z,9.51
2019-03-01T02:22:13.269Z,9.48
2019-03-01T02:24:45.201Z,9.45
2019-03-01T02:27:26.218Z,9.54
2019-03-01T02:29:59.199Z,9.62
2019-03-01T02:32:50.565Z,9.52
2019-03-01T02:35:31.310Z,9.50
2019-03-01T02:38:03.134Z,9.49
2019-03-01T02:40:39.425Z,9.48
2019-03-01T02:43:11.226Z,9.49
2019-03-01T02:45:43.097Z,9.61
2019-03-01T02:48:14.977Z,9.55
2019-03-01T02:50:46.787Z,9.52
2019-03-01T02:53:18.659Z,9.58
2019-03-01T02:55:50.463Z,9.63
2019-03-01T02:58:22.302Z,9.52
2019-03-01T03:00:54.260Z,9.52
2019-03-01T03:03:26.124Z,9.52
2019-03-01T03:06:08.689Z,9.55
2019-03-01T03:08:40.570Z,9.51
2019-03-01T03:11:12.427Z,9.57
2019-03-01T03:13:44.313Z,9.55
2019-03-01T03:16:16.214Z,9.54
2019-03-01T03:18:48.062Z,9.57
2019-03-01T03:21:19.917Z,9.52
2019-03-01T03:23:51.787Z,9.65
2019-03-01T03:26:23.639Z,9.57
2019-03-01T03:28:55.495Z,9.55
2019-03-01T03:31:27.188Z,9.54
2019-03-01T03:33:59.047Z,9.57
2019-03-01T03:36:30.950Z,9.67
2019-03-01T03:39:02.769Z,9.52
2019-03-01T03:41:34.716Z,9.50
2019-03-01T03:44:06.580Z,9.52
2019-03-01T03:46:38.424Z,9.54
2019-03-01T03:49:10.299Z,9.55
2019-03-01T03:51:42.176Z,9.33
2019-03-01T03:54:14.032Z,9.35
2019-03-01T03:56:45.933Z,9.33
2019-03-01T03:59:17.752Z,9.33
2019-03-01T04:01:49.627Z,9.32
2019-03-01T04:04:21.442Z,9.34
2019-03-01T04:06:53.313Z,9.26
2019-03-01T04:09:25.173Z,9.38
2019-03-01T04:11:57.027Z,9.26
2019-03-01T04:14:28.990Z,9.30
2019-03-01T04:17:00.840Z,9.30
2019-03-01T04:19:32.670Z,9.22
2019-03-01T04:22:04.575Z,9.26
2019-03-01T04:24:36.368Z,9.23
2019-03-01T04:27:08.248Z,9.22
2019-03-01T04:29:40.158Z,9.17
2019-03-01T04:32:11.963Z,9.25
2019-03-01T04:34:43.784Z,9.26
2019-03-01T04:37:15.698Z,9.28
2019-03-01T04:39:47.556Z,9.30
2019-03-01T04:42:19.364Z,9.31
2019-03-01T04:44:51.243Z,9.30
2019-03-01T04:47:23.081Z,9.33
2019-03-01T04:49:54.939Z,9.36
2019-03-01T04:52:44.690Z,9.39
2019-03-01T04:55:22.931Z,9.45
2019-03-01T04:57:54.781Z,9.42
2019-03-01T05:00:27.858Z,9.41
2019-03-01T05:03:01.301Z,9.44
2019-03-01T05:05:33.163Z,9.41
2019-03-01T05:08:05.089Z,9.49
2019-03-01T05:10:36.904Z,9.43
2019-03-01T05:13:08.740Z,9.46
2019-03-01T05:15:40.552Z,9.44
2019-03-01T05:18:12.416Z,9.47
2019-03-01T05:20:44.205Z,9.43
2019-03-01T05:23:16.041Z,9.48
2019-03-01T05:25:47.892Z,9.48
2019-03-01T05:28:19.728Z,9.50
2019-03-01T05:30:51.603Z,9.47
2019-03-01T05:33:24.315Z,9.48
2019-03-01T05:35:56.139Z,9.50
2019-03-01T05:38:27.968Z,9.53
2019-03-01T05:40:59.858Z,9.53
2019-03-01T05:43:31.693Z,9.50
2019-03-01T05:46:03.618Z,9.48
2019-03-01T05:48:35.455Z,9.52
2019-03-01T05:51:07.371Z,9.50
2019-03-01T05:53:39.254Z,9.44
2019-03-01T05:56:11.104Z,9.46
2019-03-01T05:59:07.191Z,9.50
2019-03-01T06:01:49.821Z,9.52
2019-03-01T06:04:33.840Z,9.45
2019-03-01T06:08:04.933Z,9.45
2019-03-01T06:11:02.615Z,9.51
2019-03-01T06:14:35.094Z,9.45
2019-03-01T06:18:00.649Z,9.40
2019-03-01T06:21:14.875Z,9.45
2019-03-01T06:24:23.222Z,9.46
2019-03-01T06:27:57.586Z,9.43
2019-03-01T06:31:00.835Z,9.56
2019-03-01T06:34:08.643Z,9.55
2019-03-01T06:37:18.989Z,9.52
2019-03-01T06:40:32.413Z,9.51
2019-03-01T06:44:08.858Z,9.54
2019-03-01T06:47:28.215Z,9.55
2019-03-01T06:50:05.539Z,9.56
2019-03-01T06:52:37.368Z,9.57
2019-03-01T06:55:32.027Z,9.58
2019-03-01T06:58:03.833Z,9.61
2019-03-01T07:00:47.310Z,9.64
2019-03-01T07:03:13.595Z,9.62
2019-03-01T07:05:45.536Z,9.60
2019-03-01T07:08:17.404Z,9.62
2019-03-01T07:10:49.296Z,9.62
2019-03-01T07:13:21.296Z,9.62
2019-03-01T07:15:53.148Z,9.69
2019-03-01T07:18:25.019Z,9.67
2019-03-01T07:20:56.910Z,9.68
2019-03-01T07:23:36.570Z,9.71
2019-03-01T07:26:02.364Z,9.71
2019-03-01T07:28:34.183Z,9.71
2019-03-01T07:31:07.092Z,9.72
2019-03-01T07:33:38.974Z,9.71
2019-03-01T07:36:10.795Z,9.72
2019-03-01T07:38:42.623Z,9.73
2019-03-01T07:41:14.524Z,9.77
2019-03-01T07:43:46.378Z,9.81
2019-03-01T07:46:18.392Z,9.85
2019-03-01T07:48:50.258Z,9.83
2019-03-01T07:51:27.020Z,9.84
2019-03-01T07:53:58.750Z,9.84
2019-03-01T07:56:30.580Z,9.86
2019-03-01T07:59:02.459Z,9.89
2019-03-01T08:01:34.286Z,9.87
2019-03-01T08:04:06.109Z,9.89
2019-03-01T08:06:38.043Z,9.87
2019-03-01T08:09:14.348Z,9.86
2019-03-01T08:11:46.257Z,9.85
2019-03-01T08:14:18.114Z,9.87
2019-03-01T08:16:52.615Z,9.87
2019-03-01T08:19:23.700Z,9.87
2019-03-01T08:21:55.577Z,9.86
2019-03-01T08:24:27.551Z,9.87
2019-03-01T08:26:59.564Z,9.86
2019-03-01T08:29:34.046Z,9.97
2019-03-01T08:32:04.998Z,9.91
2019-03-01T08:34:36.861Z,9.88
2019-03-01T08:37:08.733Z,9.88
2019-03-01T08:39:40.783Z,9.80
2019-03-01T08:42:12.694Z,9.74
2019-03-01T08:44:44.520Z,9.75
2019-03-01T08:47:20.325Z,9.56
2019-03-01T08:49:49.889Z,9.48
2019-03-01T08:52:21.754Z,9.49
2019-03-01T08:54:53.637Z,9.41
2019-03-01T08:57:26.605Z,9.43
2019-03-01T08:59:59.243Z,9.44
2019-03-01T09:02:31.088Z,9.40
2019-03-01T09:05:05.237Z,9.40
2019-03-01T09:07:36.535Z,9.42
2019-03-01T09:10:10.286Z,9.37
2019-03-01T09:12:42.876Z,9.39
2019-03-01T09:15:15.696Z,9.44
2019-03-01T09:17:47.573Z,9.39
2019-03-01T09:20:19.390Z,9.38
2019-03-01T09:22:51.278Z,9.34
2019-03-01T09:25:23.169Z,9.29
2019-03-01T09:27:55.062Z,9.25
2019-03-01T09:30:27.060Z,9.15
2019-03-01T09:32:58.892Z,9.09
2019-03-01T09:35:43.204Z,9.10
2019-03-01T09:38:14.748Z,9.05
2019-03-01T09:40:46.753Z,9.04
2019-03-01T09:43:18.691Z,9.01
2019-03-01T09:45:50.559Z,9.00
2019-03-01T09:48:22.432Z,9.01
2019-03-01T09:50:54.291Z,9.03
2019-03-01T09:53:26.383Z,8.99
2019-03-01T09:56:00.020Z,8.95
2019-03-01T09:58:32.612Z,8.88
2019-03-01T10:01:14.573Z,8.88
2019-03-01T10:03:47.316Z,8.85
2019-03-01T10:06:19.145Z,8.84
2019-03-01T10:08:50.996Z,8.80
2019-03-01T10:11:22.909Z,8.76
2019-03-01T10:13:54.790Z,8.82
2019-03-01T10:16:26.665Z,8.78
2019-03-01T10:18:58.546Z,8.79
2019-03-01T10:21:30.442Z,8.75
2019-03-01T10:24:02.325Z,8.73
2019-03-01T10:26:34.207Z,8.73
2019-03-01T10:29:06.051Z,8.73
2019-03-01T10:31:37.952Z,8.71
2019-03-01T10:34:09.845Z,8.70
2019-03-01T10:36:41.731Z,8.71
2019-03-01T10:39:16.349Z,8.69
2019-03-01T10:41:48.762Z,8.66
2019-03-01T10:44:20.708Z,8.62
2019-03-01T10:46:52.571Z,8.60
2019-03-01T10:49:24.416Z,8.59
2019-03-01T10:51:56.291Z,8.61
2019-03-01T10:54:28.183Z,8.63
2019-03-01T10:57:00.059Z,8.64
2019-03-01T10:59:33.575Z,8.65
2019-03-01T11:02:05.436Z,8.67
2019-03-01T11:04:37.315Z,8.65
2019-03-01T11:07:09.170Z,8.69
2019-03-01T11:09:41.047Z,8.68
2019-03-01T11:12:12.953Z,8.67
2019-03-01T11:14:44.814Z,8.70
2019-03-01T11:17:16.627Z,8.70
2019-03-01T11:19:48.539Z,8.71
2019-03-01T11:22:20.399Z,8.65
2019-03-01T11:24:52.303Z,8.66
2019-03-01T11:27:24.097Z,8.66
2019-03-01T11:29:55.959Z,8.71
2019-03-01T11:32:28.782Z,8.70
2019-03-01T11:35:00.807Z,8.67
2019-03-01T11:37:33.537Z,8.65
2019-03-01T11:40:08.658Z,8.64
2019-03-01T11:42:40.720Z,8.66
2019-03-01T11:45:12.769Z,8.68
2019-03-01T11:47:45.600Z,8.70
2019-03-01T11:50:20.425Z,8.74
2019-03-01T11:52:52.276Z,8.74
2019-03-01T11:55:24.361Z,8.72
2019-03-01T11:57:56.279Z,8.75
2019-03-01T12:00:28.133Z,8.71
2019-03-01T12:03:00.080Z,8.69
2019-03-01T12:05:31.975Z,8.75
2019-03-01T12:08:03.824Z,8.74
2019-03-01T12:10:35.657Z,8.73
2019-03-01T12:13:07.521Z,8.71
2019-03-01T12:15:39.405Z,8.75
2019-03-01T12:18:11.281Z,8.77
2019-03-01T12:20:43.155Z,8.76
2019-03-01T12:23:15.070Z,8.78
2019-03-01T12:25:46.890Z,8.74
2019-03-01T12:28:18.811Z,8.82
2019-03-01T12:30:51.544Z,8.81
2019-03-01T12:33:23.425Z,8.61
2019-03-01T12:35:55.257Z,8.41
2019-03-01T12:38:27.155Z,8.24
2019-03-01T12:40:59.082Z,8.11
2019-03-01T12:43:30.966Z,8.09
2019-03-01T12:46:02.965Z,8.03
2019-03-01T12:48:34.844Z,7.98
2019-03-01T12:51:06.770Z,7.98
2019-03-01T12:53:38.652Z,7.94
2019-03-01T12:56:10.526Z,7.79
2019-03-01T12:58:42.381Z,7.71
2019-03-01T13:01:14.291Z,7.70
2019-03-01T13:03:46.116Z,7.72
2019-03-01T13:06:17.987Z,7.65
2019-03-01T13:08:51.587Z,7.66
2019-03-01T13:11:23.458Z,7.63
2019-03-01T13:13:55.301Z,7.69
2019-03-01T13:16:27.437Z,7.65
2019-03-01T13:18:59.333Z,7.71
2019-03-01T13:21:31.199Z,7.59
2019-03-01T13:24:03.069Z,7.63
2019-03-01T13:26:37.678Z,7.58
2019-03-01T13:29:08.496Z,7.61
2019-03-01T13:31:40.355Z,7.62
2019-03-01T13:34:13.864Z,7.59
2019-03-01T13:36:45.769Z,7.62
2019-03-01T13:39:17.619Z,7.64
2019-03-01T13:41:49.410Z,7.62
2019-03-01T13:44:21.315Z,7.65
2019-03-01T13:46:53.175Z,7.70
2019-03-01T13:49:26.799Z,7.70
2019-03-01T13:51:58.621Z,7.64
2019-03-01T13:54:30.494Z,7.63
2019-03-01T13:57:02.524Z,7.60
2019-03-01T13:59:37.489Z,7.56
2019-03-01T14:02:08.508Z,7.57
2019-03-01T14:04:41.358Z,7.54
2019-03-01T14:07:13.266Z,7.50
2019-03-01T14:09:45.288Z,7.49
2019-03-01T14:12:17.122Z,7.51
2019-03-01T14:14:49.017Z,7.48
2019-03-01T14:17:21.090Z,7.55
2019-03-01T14:19:54.496Z,7.50
2019-03-01T14:22:26.380Z,7.52
2019-03-01T14:24:58.239Z,7.49
2019-03-01T14:27:30.428Z,7.52
2019-03-01T14:30:02.367Z,7.46
2019-03-01T14:32:34.313Z,7.45
2019-03-01T14:35:06.412Z,7.51
2019-03-01T14:37:38.304Z,7.51
2019-03-01T14:40:12.228Z,7.49
2019-03-01T14:42:47.463Z,7.53
2019-03-01T14:45:21.013Z,7.55
2019-03-01T14:47:53.162Z,7.58
2019-03-01T14:50:29.957Z,7.61
2019-03-01T14:53:00.304Z,7.62
2019-03-01T14:55:39.325Z,7.66
2019-03-01T14:58:37.331Z,7.63
2019-03-01T15:01:35.162Z,7.66
2019-03-01T15:04:07.096Z,7.66
2019-03-01T15:06:38.935Z,7.64
2019-03-01T15:09:11.610Z,7.66
2019-03-01T15:11:44.331Z,7.64
2019-03-01T15:14:17.156Z,7.62
2019-03-01T15:16:49.061Z,7.60
2019-03-01T15:19:20.907Z,7.68
2019-03-01T15:21:52.941Z,7.62
2019-03-01T15:24:24.840Z,7.59
2019-03-01T15:27:00.066Z,7.59
2019-03-01T15:29:32.199Z,7.56
2019-03-01T15:32:04.023Z,7.51
2019-03-01T15:34:35.910Z,7.47
2019-03-01T15:37:07.823Z,7.51
2019-03-01T15:39:39.731Z,7.47
2019-03-01T15:42:14.327Z,7.43
2019-03-01T15:44:45.193Z,7.41
2019-03-01T15:47:17.104Z,7.48
2019-03-01T15:49:51.378Z,7.43
2019-03-01T15:52:22.540Z,7.38
2019-03-01T15:54:54.449Z,7.39
2019-03-01T15:57:26.382Z,7.31
2019-03-01T15:59:58.270Z,7.33
2019-03-01T16:02:30.232Z,7.36
2019-03-01T16:05:02.143Z,7.40
2019-03-01T16:07:34.082Z,7.33
2019-03-01T16:10:07.187Z,7.22
2019-03-01T16:12:39.133Z,7.16
2019-03-01T16:15:12.858Z,7.20
2019-03-01T16:17:44.845Z,7.14
2019-03-01T16:20:16.740Z,7.11
2019-03-01T16:22:51.022Z,7.13
2019-03-01T16:25:22.467Z,7.02
2019-03-01T16:27:55.152Z,6.97
2019-03-01T16:30:27.123Z,6.98
2019-03-01T16:32:59.013Z,7.01
2019-03-01T16:35:30.881Z,7.01
2019-03-01T16:38:03.246Z,7.02
2019-03-01T16:40:35.210Z,7.07
2019-03-01T16:43:07.100Z,7.01
2019-03-01T16:45:38.963Z,7.09
2019-03-01T16:48:13.587Z,7.02
2019-03-01T16:50:45.041Z,7.09
2019-03-01T16:53:16.922Z,7.02
2019-03-01T16:55:50.457Z,6.93
2019-03-01T16:58:24.454Z,6.98
2019-03-01T17:00:56.124Z,6.98
2019-03-01T17:03:28.092Z,6.90
2019-03-01T17:05:59.976Z,6.89
2019-03-01T17:08:31.892Z,6.82
2019-03-01T17:11:05.783Z,6.83
2019-03-01T17:13:37.364Z,6.75
2019-03-01T17:16:09.250Z,6.73
2019-03-01T17:18:41.150Z,6.75
2019-03-01T17:21:15.891Z,6.73
2019-03-01T17:23:46.515Z,6.74
2019-03-01T17:26:18.514Z,6.75
2019-03-01T17:28:50.373Z,6.71
2019-03-01T17:31:23.161Z,6.72
2019-03-01T17:33:55.880Z,6.70
2019-03-01T17:36:27.734Z,6.68
2019-03-01T17:39:20.138Z,6.68
2019-03-01T17:41:51.843Z,6.65
2019-03-01T17:44:24.757Z,6.66
2019-03-01T17:46:56.650Z,6.69
2019-03-01T17:49:29.710Z,6.74
2019-03-01T17:52:02.128Z,6.67
2019-03-01T17:54:34.093Z,6.65
2019-03-01T17:57:06.037Z,6.63
2019-03-01T17:59:37.896Z,6.65
2019-03-01T18:02:12.084Z,6.69
2019-03-01T18:04:43.317Z,6.70
2019-03-01T18:07:15.198Z,6.73
2019-03-01T18:09:47.172Z,6.70
2019-03-01T18:12:20.604Z,6.72
2019-03-01T18:14:52.660Z,6.70
2019-03-01T18:17:24.549Z,6.70
2019-03-01T18:19:58.759Z,6.67
2019-03-01T18:22:30.096Z,6.63
2019-03-01T18:25:02.128Z,6.63
2019-03-01T18:27:33.957Z,6.62
2019-03-01T18:30:16.125Z,6.60
2019-03-01T18:32:46.295Z,6.61
2019-03-01T18:35:18.225Z,6.59
2019-03-01T18:37:51.548Z,6.59
2019-03-01T18:40:23.681Z,6.61
2019-03-01T18:42:55.046Z,6.53
2019-03-01T18:45:26.400Z,6.53
2019-03-01T18:47:57.689Z,6.49
2019-03-01T18:50:32.275Z,6.50
2019-03-01T18:53:04.439Z,6.53
2019-03-01T18:55:36.266Z,6.50
2019-03-01T18:58:10.539Z,6.55
2019-03-01T19:00:42.284Z,6.52
2019-03-01T19:03:14.686Z,6.57
2019-03-01T19:05:46.634Z,6.54
2019-03-01T19:08:18.493Z,6.54
2019-03-01T19:10:54.201Z,6.55
2019-03-01T19:13:25.589Z,6.55
2019-03-01T19:15:57.798Z,6.61
2019-03-01T19:18:29.631Z,6.58
2019-03-01T19:21:01.470Z,6.60
2019-03-01T19:23:33.392Z,6.59
2019-03-01T19:26:05.215Z,6.86
2019-03-01T19:28:37.051Z,7.08
2019-03-01T19:31:08.911Z,7.24
2019-03-01T19:33:41.726Z,7.33
2019-03-01T19:36:13.688Z,7.45
2019-03-01T19:38:46.473Z,7.44
2019-03-01T19:41:20.048Z,7.30
2019-03-01T19:43:57.461Z,7.20
2019-03-01T19:46:26.607Z,7.09
2019-03-01T19:48:58.603Z,7.03
2019-03-01T19:51:33.800Z,6.97
2019-03-01T19:54:04.082Z,6.92
2019-03-01T19:56:35.961Z,6.88
2019-03-01T19:59:07.833Z,6.87
2019-03-01T20:01:39.690Z,6.86
2019-03-01T20:04:11.555Z,6.80
2019-03-01T20:06:44.473Z,6.74
2019-03-01T20:09:16.374Z,6.75
2019-03-01T20:11:49.289Z,6.72
2019-03-01T20:14:21.202Z,6.66
2019-03-01T20:16:54.881Z,6.64
2019-03-01T20:19:26.711Z,6.61
2019-03-01T20:21:58.592Z,6.61
2019-03-01T20:24:30.633Z,6.56
2019-03-01T20:27:03.074Z,6.57
2019-03-01T20:29:35.729Z,6.57
2019-03-01T20:32:07.601Z,6.57
2019-03-01T20:34:39.497Z,6.58
2019-03-01T20:37:11.445Z,6.58
2019-03-01T20:39:43.337Z,6.61
2019-03-01T20:42:17.763Z,6.58
2019-03-01T20:44:50.280Z,6.59
2019-03-01T20:47:23.090Z,6.57
2019-03-01T20:49:54.994Z,6.55
2019-03-01T20:52:27.028Z,6.55
2019-03-01T20:55:00.589Z,6.58
2019-03-01T20:57:32.789Z,6.56
2019-03-01T21:00:05.002Z,6.57
2019-03-01T21:02:36.854Z,6.59
2019-03-01T21:05:09.778Z,6.61
2019-03-01T21:07:41.743Z,6.61
2019-03-01T21:10:21.831Z,6.65
2019-03-01T21:12:53.789Z,6.64
2019-03-01T21:15:25.692Z,6.63
2019-03-01T21:17:58.661Z,6.62
2019-03-01T21:20:30.779Z,6.64
2019-03-01T21:23:02.638Z,6.64
2019-03-01T21:25:35.896Z,6.68
2019-03-01T21:28:08.240Z,6.66
2019-03-01T21:30:41.097Z,6.71
2019-03-01T21:33:12.942Z,6.56
2019-03-01T21:35:47.881Z,6.43
2019-03-01T21:38:18.480Z,6.47
2019-03-01T21:40:50.365Z,6.48
2019-03-01T21:43:22.281Z,6.50
2019-03-01T21:45:55.492Z,6.42
2019-03-01T21:48:27.748Z,6.40
2019-03-01T21:50:59.594Z,6.36
2019-03-01T21:53:31.512Z,6.38
2019-03-01T21:56:04.585Z,6.38
2019-03-01T21:58:38.587Z,6.45
2019-03-01T22:01:10.660Z,6.46
2019-03-01T22:03:42.523Z,6.44
2019-03-01T22:06:14.398Z,6.48
2019-03-01T22:08:48.744Z,6.47
2019-03-01T22:11:20.937Z,6.47
2019-03-01T22:13:52.960Z,6.45
2019-03-01T22:16:24.838Z,6.44
2019-03-01T22:18:58.747Z,6.43
2019-03-01T22:21:30.315Z,6.42
2019-03-01T22:24:02.168Z,6.46
2019-03-01T22:26:34.005Z,6.45
2019-03-01T22:29:08.815Z,6.45
2019-03-01T22:31:39.774Z,6.47
2019-03-01T22:34:11.737Z,6.47
2019-03-01T22:36:43.564Z,6.48
2019-03-01T22:39:16.619Z,6.47
2019-03-01T22:41:48.984Z,6.50
2019-03-01T22:44:20.862Z,6.49
2019-03-01T22:46:52.757Z,6.49
2019-03-01T22:49:24.653Z,6.49
2019-03-01T22:51:56.538Z,6.54
2019-03-01T22:54:28.392Z,6.53
2019-03-01T22:57:00.300Z,6.55
2019-03-01T22:59:32.159Z,6.62
2019-03-01T23:02:08.062Z,6.58
2019-03-01T23:04:40.067Z,6.59
2019-03-01T23:07:11.931Z,6.56
2019-03-01T23:09:46.525Z,6.57
2019-03-01T23:12:17.320Z,6.59
2019-03-01T23:14:49.171Z,6.59
2019-03-01T23:17:21.008Z,6.61
2019-03-01T23:19:52.901Z,6.61
2019-03-01T23:22:24.847Z,6.60
2019-03-01T23:24:56.711Z,6.62
2019-03-01T23:27:31.672Z,6.60
2019-03-01T23:30:02.138Z,6.60
2019-03-01T23:32:34.004Z,6.61
2019-03-01T23:35:05.862Z,6.61
2019-03-01T23:37:38.841Z,6.60
2019-03-01T23:40:11.305Z,6.62
2019-03-01T23:42:43.296Z,6.62
2019-03-01T23:45:17.431Z,6.63
2019-03-01T23:47:48.749Z,6.63
2019-03-01T23:50:20.593Z,6.65
2019-03-01T23:52:54.916Z,6.68
2019-03-01T23:55:26.413Z,6.63
2019-03-01T23:58:06.281Z,6.62
